Search for airport 
image banner adimage banner adimage banner ad
image banner ad

39PA - Gehris

Located in Souderton, United States

ICAO - 39PA, IATA -

Data provided by Airmate  

General information

Coordinates: N40°19'2" W75°17'26"
Elevation is 570 feet MSL.
Magnetic variation is -11° East
View others Airports in Pennsylvania

Operational data

Special qualification required
Current time UTC:
Current local time:
Weather at : KCKZ - Pennridge ( 8 km )
METAR: KCKZ 071315Z AUTO 05005KT 10SM CLR 12/02 A2993 RMK AO2
View NOTAMs / SUP AIP / TFR affecting this airport [VIEW]
Communications frequencies: [VIEW]

Runways:

RWY identifierQFULength (ft)Width (ft)SurfaceLDA (ft)
NE1600200GRASS
SW1600200GRASS

Airport contact information

Address: Souderton United States

Satellite view of 39PA